sensor_id;sensor_type;location;lat;lon;timestamp;P1;durP1;ratioP1;P2;durP2;ratioP2
23080;SDS011;11708;50.570;8.532;2023-05-17T00:00:30;4.55;;;2.35;;
23080;SDS011;11708;50.570;8.532;2023-05-17T00:02:55;4.90;;;2.47;;
23080;SDS011;11708;50.570;8.532;2023-05-17T00:05:21;5.75;;;2.70;;
23080;SDS011;11708;50.570;8.532;2023-05-17T00:07:46;6.90;;;2.50;;
23080;SDS011;11708;50.570;8.532;2023-05-17T00:10:13;7.50;;;2.92;;
23080;SDS011;11708;50.570;8.532;2023-05-17T00:12:39;5.20;;;2.47;;
23080;SDS011;11708;50.570;8.532;2023-05-17T00:15:05;8.43;;;3.70;;
23080;SDS011;11708;50.570;8.532;2023-05-17T00:17:30;4.78;;;2.67;;
23080;SDS011;11708;50.570;8.532;2023-05-17T00:19:56;5.28;;;2.30;;
23080;SDS011;11708;50.570;8.532;2023-05-17T00:22:22;6.13;;;2.75;;
23080;SDS011;11708;50.570;8.532;2023-05-17T00:24:47;6.15;;;2.42;;
23080;SDS011;11708;50.570;8.532;2023-05-17T00:27:13;5.68;;;2.80;;
23080;SDS011;11708;50.570;8.532;2023-05-17T00:29:38;6.25;;;3.00;;
23080;SDS011;11708;50.570;8.532;2023-05-17T00:32:04;3.67;;;2.50;;
23080;SDS011;11708;50.570;8.532;2023-05-17T00:34:30;4.90;;;2.20;;
23080;SDS011;11708;50.570;8.532;2023-05-17T00:36:55;5.32;;;2.50;;
23080;SDS011;11708;50.570;8.532;2023-05-17T00:39:21;3.40;;;2.47;;
23080;SDS011;11708;50.570;8.532;2023-05-17T00:41:46;5.18;;;2.58;;
23080;SDS011;11708;50.570;8.532;2023-05-17T00:44:12;4.82;;;2.78;;
23080;SDS011;11708;50.570;8.532;2023-05-17T00:46:37;4.75;;;2.45;;
23080;SDS011;11708;50.570;8.532;2023-05-17T00:49:03;6.70;;;2.60;;
23080;SDS011;11708;50.570;8.532;2023-05-17T00:51:28;9.30;;;2.75;;
23080;SDS011;11708;50.570;8.532;2023-05-17T00:53:55;4.35;;;2.35;;
23080;SDS011;11708;50.570;8.532;2023-05-17T00:56:21;6.80;;;2.45;;
23080;SDS011;11708;50.570;8.532;2023-05-17T00:58:47;5.65;;;3.20;;
23080;SDS011;11708;50.570;8.532;2023-05-17T01:01:13;4.82;;;2.50;;
23080;SDS011;11708;50.570;8.532;2023-05-17T01:03:39;4.55;;;2.70;;
23080;SDS011;11708;50.570;8.532;2023-05-17T01:06:05;5.72;;;2.53;;
23080;SDS011;11708;50.570;8.532;2023-05-17T01:08:30;7.38;;;2.78;;
23080;SDS011;11708;50.570;8.532;2023-05-17T01:13:39;5.45;;;2.20;;
23080;SDS011;11708;50.570;8.532;2023-05-17T01:16:29;6.40;;;2.55;;
23080;SDS011;11708;50.570;8.532;2023-05-17T01:21:39;5.25;;;2.72;;
23080;SDS011;11708;50.570;8.532;2023-05-17T01:24:43;8.65;;;2.90;;
23080;SDS011;11708;50.570;8.532;2023-05-17T01:27:10;4.93;;;2.70;;
23080;SDS011;11708;50.570;8.532;2023-05-17T01:29:38;6.07;;;2.85;;
23080;SDS011;11708;50.570;8.532;2023-05-17T01:32:06;6.65;;;2.60;;
23080;SDS011;11708;50.570;8.532;2023-05-17T01:34:33;6.22;;;2.70;;
23080;SDS011;11708;50.570;8.532;2023-05-17T01:36:59;10.00;;;3.33;;
23080;SDS011;11708;50.570;8.532;2023-05-17T01:39:25;5.03;;;2.72;;
23080;SDS011;11708;50.570;8.532;2023-05-17T01:41:56;6.35;;;3.20;;
23080;SDS011;11708;50.570;8.532;2023-05-17T01:44:35;5.93;;;3.13;;
23080;SDS011;11708;50.570;8.532;2023-05-17T01:50:04;8.25;;;2.88;;
23080;SDS011;11708;50.570;8.532;2023-05-17T01:52:37;8.75;;;3.55;;
23080;SDS011;11708;50.570;8.532;2023-05-17T01:58:06;11.07;;;3.90;;
23080;SDS011;11708;50.570;8.532;2023-05-17T02:00:33;6.95;;;3.58;;
23080;SDS011;11708;50.570;8.532;2023-05-17T02:02:59;8.68;;;3.65;;
23080;SDS011;11708;50.570;8.532;2023-05-17T02:05:25;8.48;;;3.30;;
23080;SDS011;11708;50.570;8.532;2023-05-17T02:07:50;8.02;;;3.80;;
23080;SDS011;11708;50.570;8.532;2023-05-17T02:10:16;8.90;;;3.42;;
23080;SDS011;11708;50.570;8.532;2023-05-17T02:12:42;7.10;;;3.08;;
23080;SDS011;11708;50.570;8.532;2023-05-17T02:15:07;5.63;;;3.22;;
23080;SDS011;11708;50.570;8.532;2023-05-17T02:17:35;6.57;;;2.90;;
23080;SDS011;11708;50.570;8.532;2023-05-17T02:20:03;6.30;;;2.65;;
23080;SDS011;11708;50.570;8.532;2023-05-17T02:22:30;7.40;;;2.85;;
23080;SDS011;11708;50.570;8.532;2023-05-17T02:24:55;5.97;;;3.10;;
23080;SDS011;11708;50.570;8.532;2023-05-17T02:27:21;6.93;;;3.13;;
23080;SDS011;11708;50.570;8.532;2023-05-17T02:29:46;7.55;;;3.10;;
23080;SDS011;11708;50.570;8.532;2023-05-17T02:32:12;6.78;;;2.50;;
23080;SDS011;11708;50.570;8.532;2023-05-17T02:34:37;5.75;;;2.78;;
23080;SDS011;11708;50.570;8.532;2023-05-17T02:37:03;4.45;;;2.75;;
23080;SDS011;11708;50.570;8.532;2023-05-17T02:39:29;6.10;;;2.83;;
23080;SDS011;11708;50.570;8.532;2023-05-17T02:41:57;6.82;;;2.80;;
23080;SDS011;11708;50.570;8.532;2023-05-17T02:44:22;8.07;;;3.00;;
23080;SDS011;11708;50.570;8.532;2023-05-17T02:46:48;4.32;;;2.40;;
23080;SDS011;11708;50.570;8.532;2023-05-17T02:49:13;6.60;;;2.83;;
23080;SDS011;11708;50.570;8.532;2023-05-17T02:51:39;7.22;;;3.20;;
23080;SDS011;11708;50.570;8.532;2023-05-17T02:54:04;7.25;;;2.63;;
23080;SDS011;11708;50.570;8.532;2023-05-17T02:56:30;6.60;;;3.13;;
23080;SDS011;11708;50.570;8.532;2023-05-17T02:58:56;5.82;;;2.53;;
23080;SDS011;11708;50.570;8.532;2023-05-17T03:01:25;5.15;;;3.15;;
23080;SDS011;11708;50.570;8.532;2023-05-17T03:03:51;4.28;;;3.15;;
23080;SDS011;11708;50.570;8.532;2023-05-17T03:06:17;7.32;;;3.05;;
23080;SDS011;11708;50.570;8.532;2023-05-17T03:08:42;7.25;;;3.13;;
23080;SDS011;11708;50.570;8.532;2023-05-17T03:11:08;4.82;;;2.70;;
23080;SDS011;11708;50.570;8.532;2023-05-17T03:13:33;7.93;;;2.45;;
23080;SDS011;11708;50.570;8.532;2023-05-17T03:16:00;6.30;;;2.95;;
23080;SDS011;11708;50.570;8.532;2023-05-17T03:18:26;6.80;;;3.00;;
23080;SDS011;11708;50.570;8.532;2023-05-17T03:20:51;6.68;;;3.40;;
23080;SDS011;11708;50.570;8.532;2023-05-17T03:23:17;7.00;;;3.10;;
23080;SDS011;11708;50.570;8.532;2023-05-17T03:25:42;5.80;;;3.03;;
23080;SDS011;11708;50.570;8.532;2023-05-17T03:28:08;8.25;;;3.65;;
23080;SDS011;11708;50.570;8.532;2023-05-17T03:30:33;6.32;;;4.70;;
23080;SDS011;11708;50.570;8.532;2023-05-17T03:32:59;4.10;;;3.00;;
23080;SDS011;11708;50.570;8.532;2023-05-17T03:35:25;5.88;;;3.03;;
23080;SDS011;11708;50.570;8.532;2023-05-17T03:37:50;5.93;;;3.33;;
23080;SDS011;11708;50.570;8.532;2023-05-17T03:40:16;9.95;;;3.10;;
23080;SDS011;11708;50.570;8.532;2023-05-17T03:42:41;4.45;;;2.58;;
23080;SDS011;11708;50.570;8.532;2023-05-17T03:45:07;5.20;;;2.88;;
23080;SDS011;11708;50.570;8.532;2023-05-17T03:47:33;7.43;;;3.20;;
23080;SDS011;11708;50.570;8.532;2023-05-17T03:49:58;7.25;;;3.85;;
23080;SDS011;11708;50.570;8.532;2023-05-17T03:52:24;6.13;;;3.55;;
23080;SDS011;11708;50.570;8.532;2023-05-17T03:54:50;5.40;;;3.42;;
23080;SDS011;11708;50.570;8.532;2023-05-17T03:57:15;5.38;;;2.83;;
23080;SDS011;11708;50.570;8.532;2023-05-17T03:59:41;4.50;;;2.70;;
23080;SDS011;11708;50.570;8.532;2023-05-17T04:02:06;5.68;;;2.60;;
23080;SDS011;11708;50.570;8.532;2023-05-17T04:04:33;4.25;;;2.72;;
23080;SDS011;11708;50.570;8.532;2023-05-17T04:06:59;5.88;;;2.97;;
23080;SDS011;11708;50.570;8.532;2023-05-17T04:09:25;10.00;;;3.85;;
23080;SDS011;11708;50.570;8.532;2023-05-17T04:11:51;6.55;;;2.92;;
23080;SDS011;11708;50.570;8.532;2023-05-17T04:14:17;7.20;;;3.75;;
23080;SDS011;11708;50.570;8.532;2023-05-17T04:16:43;6.72;;;3.22;;
23080;SDS011;11708;50.570;8.532;2023-05-17T04:19:08;7.47;;;3.33;;
23080;SDS011;11708;50.570;8.532;2023-05-17T04:21:34;6.50;;;2.97;;
23080;SDS011;11708;50.570;8.532;2023-05-17T04:23:59;6.78;;;3.10;;
23080;SDS011;11708;50.570;8.532;2023-05-17T04:26:25;9.40;;;3.20;;
23080;SDS011;11708;50.570;8.532;2023-05-17T04:28:51;7.38;;;3.40;;
23080;SDS011;11708;50.570;8.532;2023-05-17T04:31:16;11.35;;;3.80;;
23080;SDS011;11708;50.570;8.532;2023-05-17T04:33:44;9.18;;;4.22;;
23080;SDS011;11708;50.570;8.532;2023-05-17T04:36:10;7.60;;;4.03;;
23080;SDS011;11708;50.570;8.532;2023-05-17T04:38:36;6.03;;;3.10;;
23080;SDS011;11708;50.570;8.532;2023-05-17T04:41:03;7.75;;;3.83;;
23080;SDS011;11708;50.570;8.532;2023-05-17T04:43:30;8.10;;;3.38;;
23080;SDS011;11708;50.570;8.532;2023-05-17T04:45:56;5.45;;;3.25;;
23080;SDS011;11708;50.570;8.532;2023-05-17T04:48:22;5.80;;;2.90;;
23080;SDS011;11708;50.570;8.532;2023-05-17T04:50:50;7.00;;;3.17;;
23080;SDS011;11708;50.570;8.532;2023-05-17T04:53:17;6.85;;;3.05;;
23080;SDS011;11708;50.570;8.532;2023-05-17T04:55:43;8.27;;;3.42;;
23080;SDS011;11708;50.570;8.532;2023-05-17T04:58:09;6.82;;;3.20;;
23080;SDS011;11708;50.570;8.532;2023-05-17T05:00:35;8.00;;;3.65;;
23080;SDS011;11708;50.570;8.532;2023-05-17T05:03:01;11.10;;;3.67;;
23080;SDS011;11708;50.570;8.532;2023-05-17T05:05:28;8.05;;;3.47;;
23080;SDS011;11708;50.570;8.532;2023-05-17T05:07:55;10.10;;;3.75;;
23080;SDS011;11708;50.570;8.532;2023-05-17T05:10:21;6.35;;;3.50;;
23080;SDS011;11708;50.570;8.532;2023-05-17T05:12:47;6.32;;;3.28;;
23080;SDS011;11708;50.570;8.532;2023-05-17T05:15:13;8.75;;;3.55;;
23080;SDS011;11708;50.570;8.532;2023-05-17T05:17:39;6.30;;;3.50;;
23080;SDS011;11708;50.570;8.532;2023-05-17T05:20:05;9.23;;;4.25;;
23080;SDS011;11708;50.570;8.532;2023-05-17T05:22:31;9.27;;;3.60;;
23080;SDS011;11708;50.570;8.532;2023-05-17T05:24:57;9.73;;;3.90;;
23080;SDS011;11708;50.570;8.532;2023-05-17T05:27:22;9.05;;;3.65;;
23080;SDS011;11708;50.570;8.532;2023-05-17T05:29:48;9.55;;;4.20;;
23080;SDS011;11708;50.570;8.532;2023-05-17T05:32:13;8.70;;;3.80;;
23080;SDS011;11708;50.570;8.532;2023-05-17T05:34:41;14.80;;;4.47;;
23080;SDS011;11708;50.570;8.532;2023-05-17T05:37:07;9.10;;;4.25;;
23080;SDS011;11708;50.570;8.532;2023-05-17T05:39:32;10.15;;;4.40;;
23080;SDS011;11708;50.570;8.532;2023-05-17T05:41:58;10.68;;;4.60;;
23080;SDS011;11708;50.570;8.532;2023-05-17T05:44:23;6.65;;;4.05;;
23080;SDS011;11708;50.570;8.532;2023-05-17T05:46:49;12.85;;;4.63;;
23080;SDS011;11708;50.570;8.532;2023-05-17T05:49:14;13.02;;;4.20;;
23080;SDS011;11708;50.570;8.532;2023-05-17T05:51:40;10.43;;;3.88;;
23080;SDS011;11708;50.570;8.532;2023-05-17T05:54:06;12.85;;;4.25;;
23080;SDS011;11708;50.570;8.532;2023-05-17T05:56:31;9.43;;;4.45;;
23080;SDS011;11708;50.570;8.532;2023-05-17T05:58:57;10.45;;;3.85;;
23080;SDS011;11708;50.570;8.532;2023-05-17T06:01:22;13.02;;;4.38;;
23080;SDS011;11708;50.570;8.532;2023-05-17T06:03:49;12.98;;;4.68;;
23080;SDS011;11708;50.570;8.532;2023-05-17T06:06:14;9.18;;;4.18;;
23080;SDS011;11708;50.570;8.532;2023-05-17T06:08:43;10.23;;;4.57;;
23080;SDS011;11708;50.570;8.532;2023-05-17T06:11:09;11.35;;;4.80;;
23080;SDS011;11708;50.570;8.532;2023-05-17T06:13:35;11.05;;;4.75;;
23080;SDS011;11708;50.570;8.532;2023-05-17T06:16:00;8.60;;;4.03;;
23080;SDS011;11708;50.570;8.532;2023-05-17T06:18:26;9.13;;;4.50;;
23080;SDS011;11708;50.570;8.532;2023-05-17T06:20:52;11.02;;;5.22;;
23080;SDS011;11708;50.570;8.532;2023-05-17T06:23:17;8.00;;;3.88;;
23080;SDS011;11708;50.570;8.532;2023-05-17T06:25:43;8.68;;;4.50;;
23080;SDS011;11708;50.570;8.532;2023-05-17T06:28:08;11.32;;;4.43;;
23080;SDS011;11708;50.570;8.532;2023-05-17T06:30:34;15.25;;;4.30;;
23080;SDS011;11708;50.570;8.532;2023-05-17T06:33:00;10.43;;;4.25;;
23080;SDS011;11708;50.570;8.532;2023-05-17T06:35:25;8.70;;;4.10;;
23080;SDS011;11708;50.570;8.532;2023-05-17T06:37:51;10.25;;;4.35;;
23080;SDS011;11708;50.570;8.532;2023-05-17T06:40:16;11.95;;;4.75;;
23080;SDS011;11708;50.570;8.532;2023-05-17T06:42:42;7.32;;;4.07;;
23080;SDS011;11708;50.570;8.532;2023-05-17T06:45:08;10.73;;;4.30;;
23080;SDS011;11708;50.570;8.532;2023-05-17T06:47:34;12.02;;;4.72;;
23080;SDS011;11708;50.570;8.532;2023-05-17T06:49:59;9.15;;;4.20;;
23080;SDS011;11708;50.570;8.532;2023-05-17T06:52:25;14.15;;;5.57;;
23080;SDS011;11708;50.570;8.532;2023-05-17T06:54:51;8.85;;;4.57;;
23080;SDS011;11708;50.570;8.532;2023-05-17T06:57:16;7.47;;;4.38;;
23080;SDS011;11708;50.570;8.532;2023-05-17T06:59:42;9.95;;;3.85;;
23080;SDS011;11708;50.570;8.532;2023-05-17T07:02:08;11.85;;;4.03;;
23080;SDS011;11708;50.570;8.532;2023-05-17T07:04:33;10.70;;;3.78;;
23080;SDS011;11708;50.570;8.532;2023-05-17T07:06:59;6.78;;;3.25;;
23080;SDS011;11708;50.570;8.532;2023-05-17T07:09:25;7.82;;;3.75;;
23080;SDS011;11708;50.570;8.532;2023-05-17T07:11:51;9.35;;;3.53;;
23080;SDS011;11708;50.570;8.532;2023-05-17T07:14:17;9.35;;;3.35;;
23080;SDS011;11708;50.570;8.532;2023-05-17T07:16:42;9.43;;;3.40;;
23080;SDS011;11708;50.570;8.532;2023-05-17T07:19:09;10.05;;;3.78;;
23080;SDS011;11708;50.570;8.532;2023-05-17T07:21:34;8.75;;;3.60;;
23080;SDS011;11708;50.570;8.532;2023-05-17T07:24:00;12.07;;;3.10;;
23080;SDS011;11708;50.570;8.532;2023-05-17T07:26:25;9.98;;;3.25;;
23080;SDS011;11708;50.570;8.532;2023-05-17T07:28:51;12.60;;;3.38;;
23080;SDS011;11708;50.570;8.532;2023-05-17T07:31:16;10.52;;;3.13;;
23080;SDS011;11708;50.570;8.532;2023-05-17T07:33:42;9.13;;;3.10;;
23080;SDS011;11708;50.570;8.532;2023-05-17T07:36:08;5.07;;;2.97;;
23080;SDS011;11708;50.570;8.532;2023-05-17T07:38:34;12.07;;;3.30;;
23080;SDS011;11708;50.570;8.532;2023-05-17T07:40:59;6.10;;;2.83;;
23080;SDS011;11708;50.570;8.532;2023-05-17T07:43:25;9.10;;;2.40;;
23080;SDS011;11708;50.570;8.532;2023-05-17T07:45:51;7.63;;;3.00;;
23080;SDS011;11708;50.570;8.532;2023-05-17T07:48:16;5.95;;;2.75;;
23080;SDS011;11708;50.570;8.532;2023-05-17T07:50:42;5.60;;;2.30;;
23080;SDS011;11708;50.570;8.532;2023-05-17T07:53:08;6.03;;;2.70;;
23080;SDS011;11708;50.570;8.532;2023-05-17T07:55:33;7.05;;;3.00;;
23080;SDS011;11708;50.570;8.532;2023-05-17T07:57:59;8.68;;;2.63;;
23080;SDS011;11708;50.570;8.532;2023-05-17T08:00:25;8.00;;;3.17;;
23080;SDS011;11708;50.570;8.532;2023-05-17T08:02:50;8.82;;;2.30;;
23080;SDS011;11708;50.570;8.532;2023-05-17T08:05:16;5.72;;;2.75;;
23080;SDS011;11708;50.570;8.532;2023-05-17T08:07:42;8.13;;;2.88;;
23080;SDS011;11708;50.570;8.532;2023-05-17T08:10:07;6.75;;;2.65;;
23080;SDS011;11708;50.570;8.532;2023-05-17T08:12:33;6.32;;;2.75;;
23080;SDS011;11708;50.570;8.532;2023-05-17T08:14:59;10.82;;;3.47;;
23080;SDS011;11708;50.570;8.532;2023-05-17T08:17:24;8.15;;;2.67;;
23080;SDS011;11708;50.570;8.532;2023-05-17T08:19:50;5.55;;;2.22;;
23080;SDS011;11708;50.570;8.532;2023-05-17T08:22:16;7.25;;;2.58;;
23080;SDS011;11708;50.570;8.532;2023-05-17T08:24:41;5.53;;;2.42;;
23080;SDS011;11708;50.570;8.532;2023-05-17T08:27:09;5.93;;;2.58;;
23080;SDS011;11708;50.570;8.532;2023-05-17T08:29:34;6.80;;;2.50;;
23080;SDS011;11708;50.570;8.532;2023-05-17T08:32:01;8.35;;;2.78;;
23080;SDS011;11708;50.570;8.532;2023-05-17T08:34:27;4.70;;;2.33;;
23080;SDS011;11708;50.570;8.532;2023-05-17T08:36:52;4.78;;;2.15;;
23080;SDS011;11708;50.570;8.532;2023-05-17T08:39:18;6.50;;;2.30;;
23080;SDS011;11708;50.570;8.532;2023-05-17T08:41:48;4.75;;;1.67;;
23080;SDS011;11708;50.570;8.532;2023-05-17T08:44:13;3.63;;;2.00;;
23080;SDS011;11708;50.570;8.532;2023-05-17T08:46:42;6.53;;;1.90;;
23080;SDS011;11708;50.570;8.532;2023-05-17T08:49:08;7.05;;;2.00;;
23080;SDS011;11708;50.570;8.532;2023-05-17T08:51:39;6.05;;;1.50;;
23080;SDS011;11708;50.570;8.532;2023-05-17T08:54:06;3.30;;;1.92;;
23080;SDS011;11708;50.570;8.532;2023-05-17T08:56:32;6.13;;;1.90;;
23080;SDS011;11708;50.570;8.532;2023-05-17T08:59:02;5.50;;;1.83;;
23080;SDS011;11708;50.570;8.532;2023-05-17T09:01:30;5.95;;;1.80;;
23080;SDS011;11708;50.570;8.532;2023-05-17T09:03:56;4.20;;;2.00;;
23080;SDS011;11708;50.570;8.532;2023-05-17T09:06:24;3.60;;;2.03;;
23080;SDS011;11708;50.570;8.532;2023-05-17T09:08:50;5.68;;;2.08;;
23080;SDS011;11708;50.570;8.532;2023-05-17T09:11:28;5.63;;;2.58;;
23080;SDS011;11708;50.570;8.532;2023-05-17T09:13:57;4.75;;;1.98;;
23080;SDS011;11708;50.570;8.532;2023-05-17T09:16:28;4.25;;;1.88;;
23080;SDS011;11708;50.570;8.532;2023-05-17T09:18:59;5.22;;;1.85;;
23080;SDS011;11708;50.570;8.532;2023-05-17T09:21:26;3.03;;;1.65;;
23080;SDS011;11708;50.570;8.532;2023-05-17T09:23:53;5.47;;;1.58;;
23080;SDS011;11708;50.570;8.532;2023-05-17T09:26:19;5.95;;;1.63;;
23080;SDS011;11708;50.570;8.532;2023-05-17T09:28:46;4.30;;;1.80;;
23080;SDS011;11708;50.570;8.532;2023-05-17T09:31:14;8.18;;;2.00;;
23080;SDS011;11708;50.570;8.532;2023-05-17T09:36:16;4.45;;;1.80;;
23080;SDS011;11708;50.570;8.532;2023-05-17T09:38:58;4.93;;;1.90;;
23080;SDS011;11708;50.570;8.532;2023-05-17T09:41:30;3.67;;;1.30;;
23080;SDS011;11708;50.570;8.532;2023-05-17T09:43:57;7.03;;;1.50;;
23080;SDS011;11708;50.570;8.532;2023-05-17T09:46:26;5.47;;;1.88;;
23080;SDS011;11708;50.570;8.532;2023-05-17T09:48:55;6.70;;;1.67;;
23080;SDS011;11708;50.570;8.532;2023-05-17T09:51:39;6.75;;;1.65;;
23080;SDS011;11708;50.570;8.532;2023-05-17T09:54:06;3.35;;;1.27;;
23080;SDS011;11708;50.570;8.532;2023-05-17T09:56:34;5.03;;;1.50;;
23080;SDS011;11708;50.570;8.532;2023-05-17T09:59:00;3.65;;;1.40;;
23080;SDS011;11708;50.570;8.532;2023-05-17T10:01:27;6.75;;;2.10;;
23080;SDS011;11708;50.570;8.532;2023-05-17T10:03:55;7.32;;;1.90;;
23080;SDS011;11708;50.570;8.532;2023-05-17T10:06:26;4.38;;;1.92;;
23080;SDS011;11708;50.570;8.532;2023-05-17T10:08:54;5.50;;;1.80;;
23080;SDS011;11708;50.570;8.532;2023-05-17T10:11:29;3.72;;;1.55;;
23080;SDS011;11708;50.570;8.532;2023-05-17T10:14:07;2.97;;;1.27;;
23080;SDS011;11708;50.570;8.532;2023-05-17T10:16:34;4.50;;;1.70;;
23080;SDS011;11708;50.570;8.532;2023-05-17T10:19:01;4.43;;;1.70;;
23080;SDS011;11708;50.570;8.532;2023-05-17T10:21:28;3.38;;;1.45;;
23080;SDS011;11708;50.570;8.532;2023-05-17T10:23:55;4.20;;;1.73;;
23080;SDS011;11708;50.570;8.532;2023-05-17T10:26:22;7.55;;;1.98;;
23080;SDS011;11708;50.570;8.532;2023-05-17T10:28:48;6.15;;;2.20;;
23080;SDS011;11708;50.570;8.532;2023-05-17T10:31:17;3.40;;;1.52;;
23080;SDS011;11708;50.570;8.532;2023-05-17T10:33:45;4.10;;;1.77;;
23080;SDS011;11708;50.570;8.532;2023-05-17T10:36:15;7.72;;;2.33;;
23080;SDS011;11708;50.570;8.532;2023-05-17T10:38:41;5.20;;;1.77;;
23080;SDS011;11708;50.570;8.532;2023-05-17T10:41:08;6.47;;;1.63;;
23080;SDS011;11708;50.570;8.532;2023-05-17T10:43:35;3.85;;;1.70;;
23080;SDS011;11708;50.570;8.532;2023-05-17T10:46:10;4.90;;;1.50;;
23080;SDS011;11708;50.570;8.532;2023-05-17T10:48:40;5.07;;;1.80;;
23080;SDS011;11708;50.570;8.532;2023-05-17T10:51:06;4.28;;;1.88;;
23080;SDS011;11708;50.570;8.532;2023-05-17T10:54:02;6.07;;;2.20;;
23080;SDS011;11708;50.570;8.532;2023-05-17T10:56:33;4.78;;;1.70;;
23080;SDS011;11708;50.570;8.532;2023-05-17T11:01:49;4.03;;;1.73;;
23080;SDS011;11708;50.570;8.532;2023-05-17T11:04:22;7.90;;;1.83;;
23080;SDS011;11708;50.570;8.532;2023-05-17T11:06:50;9.50;;;1.90;;
23080;SDS011;11708;50.570;8.532;2023-05-17T11:09:16;4.93;;;1.77;;
23080;SDS011;11708;50.570;8.532;2023-05-17T11:17:33;4.90;;;1.60;;
23080;SDS011;11708;50.570;8.532;2023-05-17T11:25:22;6.22;;;1.90;;
23080;SDS011;11708;50.570;8.532;2023-05-17T11:27:51;7.03;;;1.67;;
23080;SDS011;11708;50.570;8.532;2023-05-17T11:32:47;6.18;;;1.90;;
23080;SDS011;11708;50.570;8.532;2023-05-17T11:35:18;5.68;;;1.80;;
23080;SDS011;11708;50.570;8.532;2023-05-17T11:37:50;5.78;;;1.88;;
23080;SDS011;11708;50.570;8.532;2023-05-17T11:40:35;6.55;;;2.30;;
23080;SDS011;11708;50.570;8.532;2023-05-17T11:43:08;4.07;;;1.70;;
23080;SDS011;11708;50.570;8.532;2023-05-17T11:45:42;7.10;;;1.70;;
23080;SDS011;11708;50.570;8.532;2023-05-17T11:48:13;7.35;;;1.73;;
23080;SDS011;11708;50.570;8.532;2023-05-17T11:50:40;6.10;;;2.00;;
23080;SDS011;11708;50.570;8.532;2023-05-17T11:53:06;4.40;;;1.77;;
23080;SDS011;11708;50.570;8.532;2023-05-17T11:55:42;5.53;;;1.88;;
23080;SDS011;11708;50.570;8.532;2023-05-17T11:58:13;5.68;;;1.77;;
23080;SDS011;11708;50.570;8.532;2023-05-17T12:00:40;4.85;;;1.90;;
23080;SDS011;11708;50.570;8.532;2023-05-17T12:03:22;4.78;;;1.70;;
23080;SDS011;11708;50.570;8.532;2023-05-17T12:06:00;5.28;;;1.80;;
23080;SDS011;11708;50.570;8.532;2023-05-17T12:08:29;3.78;;;1.80;;
23080;SDS011;11708;50.570;8.532;2023-05-17T12:10:56;5.78;;;1.52;;
23080;SDS011;11708;50.570;8.532;2023-05-17T12:13:22;7.70;;;2.05;;
23080;SDS011;11708;50.570;8.532;2023-05-17T12:16:01;7.65;;;1.95;;
23080;SDS011;11708;50.570;8.532;2023-05-17T12:18:39;7.03;;;2.25;;
23080;SDS011;11708;50.570;8.532;2023-05-17T12:21:12;6.70;;;1.73;;
23080;SDS011;11708;50.570;8.532;2023-05-17T12:23:39;3.72;;;1.80;;
23080;SDS011;11708;50.570;8.532;2023-05-17T12:26:13;6.85;;;1.80;;
23080;SDS011;11708;50.570;8.532;2023-05-17T12:28:44;6.15;;;1.85;;
23080;SDS011;11708;50.570;8.532;2023-05-17T12:31:17;6.65;;;2.05;;
23080;SDS011;11708;50.570;8.532;2023-05-17T12:33:46;5.30;;;1.80;;
23080;SDS011;11708;50.570;8.532;2023-05-17T12:36:14;4.43;;;1.80;;
23080;SDS011;11708;50.570;8.532;2023-05-17T12:38:41;5.82;;;2.17;;
23080;SDS011;11708;50.570;8.532;2023-05-17T12:41:10;5.85;;;1.63;;
23080;SDS011;11708;50.570;8.532;2023-05-17T12:43:38;6.57;;;1.90;;
23080;SDS011;11708;50.570;8.532;2023-05-17T12:46:04;3.38;;;1.63;;
23080;SDS011;11708;50.570;8.532;2023-05-17T12:48:36;6.57;;;1.80;;
23080;SDS011;11708;50.570;8.532;2023-05-17T12:51:13;4.00;;;1.40;;
23080;SDS011;11708;50.570;8.532;2023-05-17T12:56:19;10.32;;;1.92;;
23080;SDS011;11708;50.570;8.532;2023-05-17T12:59:02;6.70;;;2.38;;
23080;SDS011;11708;50.570;8.532;2023-05-17T13:01:33;7.25;;;2.58;;
23080;SDS011;11708;50.570;8.532;2023-05-17T13:04:03;3.45;;;1.73;;
23080;SDS011;11708;50.570;8.532;2023-05-17T13:06:41;5.57;;;1.90;;
23080;SDS011;11708;50.570;8.532;2023-05-17T13:09:15;8.13;;;2.13;;
23080;SDS011;11708;50.570;8.532;2023-05-17T13:11:42;6.07;;;1.75;;
23080;SDS011;11708;50.570;8.532;2023-05-17T13:14:14;6.75;;;2.05;;
23080;SDS011;11708;50.570;8.532;2023-05-17T13:16:56;5.53;;;1.80;;
23080;SDS011;11708;50.570;8.532;2023-05-17T13:19:22;6.97;;;2.42;;
23080;SDS011;11708;50.570;8.532;2023-05-17T13:21:47;4.28;;;1.52;;
23080;SDS011;11708;50.570;8.532;2023-05-17T13:24:13;7.85;;;2.38;;
23080;SDS011;11708;50.570;8.532;2023-05-17T13:26:38;6.13;;;1.60;;
23080;SDS011;11708;50.570;8.532;2023-05-17T13:29:04;6.80;;;1.95;;
23080;SDS011;11708;50.570;8.532;2023-05-17T13:31:30;7.25;;;2.33;;
23080;SDS011;11708;50.570;8.532;2023-05-17T13:33:55;3.92;;;1.83;;
23080;SDS011;11708;50.570;8.532;2023-05-17T13:36:21;6.53;;;1.80;;
23080;SDS011;11708;50.570;8.532;2023-05-17T13:38:46;7.35;;;2.10;;
23080;SDS011;11708;50.570;8.532;2023-05-17T13:41:12;5.78;;;2.05;;
23080;SDS011;11708;50.570;8.532;2023-05-17T13:43:38;3.45;;;1.67;;
23080;SDS011;11708;50.570;8.532;2023-05-17T13:46:03;5.93;;;1.88;;
23080;SDS011;11708;50.570;8.532;2023-05-17T13:48:29;4.70;;;2.00;;
23080;SDS011;11708;50.570;8.532;2023-05-17T13:50:55;7.97;;;1.88;;
23080;SDS011;11708;50.570;8.532;2023-05-17T13:53:20;8.88;;;2.70;;
23080;SDS011;11708;50.570;8.532;2023-05-17T13:55:46;3.60;;;1.85;;
23080;SDS011;11708;50.570;8.532;2023-05-17T13:58:12;6.30;;;2.00;;
23080;SDS011;11708;50.570;8.532;2023-05-17T14:00:38;5.13;;;1.83;;
23080;SDS011;11708;50.570;8.532;2023-05-17T14:03:07;5.13;;;1.63;;
23080;SDS011;11708;50.570;8.532;2023-05-17T14:05:32;5.20;;;1.70;;
23080;SDS011;11708;50.570;8.532;2023-05-17T14:08:00;6.97;;;1.90;;
23080;SDS011;11708;50.570;8.532;2023-05-17T14:10:26;5.43;;;1.90;;
23080;SDS011;11708;50.570;8.532;2023-05-17T14:12:52;4.85;;;1.90;;
23080;SDS011;11708;50.570;8.532;2023-05-17T14:15:17;5.75;;;2.00;;
23080;SDS011;11708;50.570;8.532;2023-05-17T14:17:43;4.80;;;1.95;;
23080;SDS011;11708;50.570;8.532;2023-05-17T14:20:08;6.03;;;2.10;;
23080;SDS011;11708;50.570;8.532;2023-05-17T14:22:34;3.47;;;1.75;;
23080;SDS011;11708;50.570;8.532;2023-05-17T14:25:00;6.13;;;2.08;;
23080;SDS011;11708;50.570;8.532;2023-05-17T14:27:26;6.32;;;2.13;;
23080;SDS011;11708;50.570;8.532;2023-05-17T14:29:52;6.45;;;2.10;;
23080;SDS011;11708;50.570;8.532;2023-05-17T14:32:18;4.35;;;1.85;;
23080;SDS011;11708;50.570;8.532;2023-05-17T14:34:43;6.35;;;2.10;;
23080;SDS011;11708;50.570;8.532;2023-05-17T14:37:09;6.75;;;2.03;;
23080;SDS011;11708;50.570;8.532;2023-05-17T14:39:35;3.50;;;1.77;;
23080;SDS011;11708;50.570;8.532;2023-05-17T14:42:00;4.85;;;2.13;;
23080;SDS011;11708;50.570;8.532;2023-05-17T14:44:26;4.88;;;1.85;;
23080;SDS011;11708;50.570;8.532;2023-05-17T14:46:51;4.82;;;2.33;;
23080;SDS011;11708;50.570;8.532;2023-05-17T14:49:17;5.78;;;2.00;;
23080;SDS011;11708;50.570;8.532;2023-05-17T14:51:43;4.80;;;1.98;;
23080;SDS011;11708;50.570;8.532;2023-05-17T14:54:08;4.85;;;1.73;;
23080;SDS011;11708;50.570;8.532;2023-05-17T14:56:34;3.78;;;1.80;;
23080;SDS011;11708;50.570;8.532;2023-05-17T14:59:00;3.60;;;1.90;;
23080;SDS011;11708;50.570;8.532;2023-05-17T15:01:27;5.15;;;2.08;;
23080;SDS011;11708;50.570;8.532;2023-05-17T15:03:53;8.90;;;1.90;;
23080;SDS011;11708;50.570;8.532;2023-05-17T15:06:18;4.00;;;1.85;;
23080;SDS011;11708;50.570;8.532;2023-05-17T15:08:48;6.45;;;1.83;;
23080;SDS011;11708;50.570;8.532;2023-05-17T15:11:14;7.97;;;1.95;;
23080;SDS011;11708;50.570;8.532;2023-05-17T15:13:41;4.60;;;1.95;;
23080;SDS011;11708;50.570;8.532;2023-05-17T15:16:07;6.43;;;1.90;;
23080;SDS011;11708;50.570;8.532;2023-05-17T15:18:32;4.25;;;1.63;;